Time;durP1;ratioP1;P1;durP2;ratioP2;P2;SDS_P1;SDS_P2;PMS_P1;PMS_P2;Temp;Humidity;BMP_temperature;BMP_pressure;BME280_temperature;BME280_humidity;BME280_pressure;Samples;Min_cycle;Max_cycle;Signal;HPM_P1;HPM_P2
2021/08/04 00:00:38;;;;;;;37.97;6.45;;;18.90;86.90;;;;;;5017563;28;20479;-59
2021/08/04 00:03:04;;;;;;;32.20;5.90;;;18.80;86.90;;;;;;5021712;28;20152;-59
2021/08/04 00:05:30;;;;;;;40.20;6.18;;;18.80;86.90;;;;;;5019560;28;20448;-59
2021/08/04 00:07:55;;;;;;;33.90;5.95;;;18.80;86.90;;;;;;5020609;28;20521;-59
2021/08/04 00:10:21;;;;;;;41.90;6.03;;;18.60;86.80;;;;;;5019421;28;20014;-59
2021/08/04 00:12:46;;;;;;;22.83;5.32;;;18.80;86.90;;;;;;5020127;28;20033;-59
2021/08/04 00:15:13;;;;;;;29.90;5.72;;;18.80;87.00;;;;;;5021871;28;20033;-58
2021/08/04 00:17:39;;;;;;;33.95;5.13;;;18.80;87.10;;;;;;5020056;28;20377;-58
2021/08/04 00:20:05;;;;;;;29.58;5.55;;;18.80;87.30;;;;;;5021101;28;20057;-59
2021/08/04 00:22:30;;;;;;;24.85;5.30;;;18.70;87.20;;;;;;5019415;28;20110;-59
2021/08/04 00:24:56;;;;;;;31.05;5.00;;;18.70;87.30;;;;;;5022318;28;20034;-59
2021/08/04 00:27:21;;;;;;;30.42;5.35;;;18.70;87.40;;;;;;5021287;28;20033;-59
2021/08/04 00:29:46;;;;;;;28.17;5.25;;;18.70;87.40;;;;;;5022605;28;20462;-59
2021/08/04 00:32:12;;;;;;;20.33;4.38;;;18.70;87.40;;;;;;5023699;28;20117;-59
2021/08/04 00:34:37;;;;;;;26.63;4.75;;;18.70;87.50;;;;;;5023806;28;20030;-59
2021/08/04 00:37:03;;;;;;;22.13;4.68;;;18.70;87.50;;;;;;5025046;28;20037;-59
2021/08/04 00:39:29;;;;;;;19.92;4.50;;;18.70;87.70;;;;;;5023957;28;20053;-59
2021/08/04 00:41:55;;;;;;;16.63;4.07;;;18.70;87.70;;;;;;5025480;28;20029;-59
2021/08/04 00:44:20;;;;;;;14.63;3.65;;;18.60;87.70;;;;;;5022520;28;20034;-58
2021/08/04 00:46:46;;;;;;;26.52;3.70;;;18.60;87.80;;;;;;5021432;28;20034;-59
2021/08/04 00:49:12;;;;;;;17.02;3.85;;;18.60;87.90;;;;;;5020541;28;20040;-59
2021/08/04 00:51:37;;;;;;;18.80;3.92;;;18.60;87.90;;;;;;5021413;28;20531;-59
2021/08/04 00:54:04;;;;;;;25.77;4.38;;;18.60;87.90;;;;;;5022792;28;20046;-59
2021/08/04 00:56:29;;;;;;;12.27;3.60;;;18.60;87.90;;;;;;5025175;28;20029;-58
2021/08/04 00:58:55;;;;;;;14.75;3.28;;;18.60;87.90;;;;;;5022808;28;20159;-59
2021/08/04 01:01:21;;;;;;;19.33;3.30;;;18.60;88.00;;;;;;5022985;28;20072;-58
2021/08/04 01:03:50;;;;;;;12.20;3.08;;;18.60;88.10;;;;;;5023390;28;20025;-59
2021/08/04 01:06:36;;;;;;;16.77;3.15;;;18.60;88.20;;;;;;5021478;28;20032;-59
2021/08/04 01:09:02;;;;;;;8.07;3.15;;;18.60;88.40;;;;;;5009080;28;20079;-58
2021/08/04 01:11:33;;;;;;;7.43;3.00;;;18.60;88.50;;;;;;5023462;28;20060;-59
2021/08/04 01:14:01;;;;;;;8.93;2.75;;;18.50;88.50;;;;;;5029532;28;20038;-59
2021/08/04 01:16:28;;;;;;;7.05;3.20;;;18.50;88.60;;;;;;5022761;28;20147;-59
2021/08/04 01:19:18;;;;;;;8.88;2.95;;;18.50;88.70;;;;;;5023368;28;20064;-59
2021/08/04 01:22:04;;;;;;;6.78;2.90;;;18.50;88.90;;;;;;5002972;28;20037;-59
2021/08/04 01:24:33;;;;;;;8.93;3.17;;;18.50;89.00;;;;;;5022363;28;20132;-59
2021/08/04 01:26:58;;;;;;;17.13;3.35;;;18.50;88.90;;;;;;5002814;28;20045;-59
2021/08/04 01:29:24;;;;;;;31.83;3.92;;;18.40;88.90;;;;;;5021103;28;20103;-59
2021/08/04 01:31:50;;;;;;;32.35;5.20;;;18.50;88.90;;;;;;5006065;28;20781;-59
2021/08/04 01:34:18;;;;;;;35.25;5.10;;;18.50;89.00;;;;;;5023320;28;20059;-59
2021/08/04 01:36:44;;;;;;;30.10;5.13;;;18.40;88.90;;;;;;5023273;28;20380;-59
2021/08/04 01:39:09;;;;;;;19.58;4.60;;;18.40;88.90;;;;;;5004697;28;20037;-62
2021/08/04 01:41:35;;;;;;;16.33;3.83;;;18.40;88.90;;;;;;5022352;28;20036;-59
2021/08/04 01:44:01;;;;;;;16.48;4.38;;;18.40;89.00;;;;;;5022168;28;20132;-59
2021/08/04 01:46:27;;;;;;;12.95;4.50;;;18.40;89.00;;;;;;4988794;28;20029;-59
2021/08/04 01:48:52;;;;;;;15.65;3.38;;;18.40;89.10;;;;;;5021843;28;20485;-59
2021/08/04 01:51:18;;;;;;;19.83;4.28;;;18.40;89.00;;;;;;5005155;28;20041;-59
2021/08/04 01:53:44;;;;;;;11.85;3.47;;;18.40;89.10;;;;;;5021195;28;20037;-59
2021/08/04 01:56:10;;;;;;;12.05;3.45;;;18.30;89.10;;;;;;5023075;28;20036;-59
2021/08/04 01:58:38;;;;;;;21.90;4.50;;;18.30;89.10;;;;;;5022985;28;20033;-59
2021/08/04 02:01:04;;;;;;;13.98;3.95;;;18.30;89.10;;;;;;5021800;28;20536;-59
2021/08/04 02:03:29;;;;;;;11.80;3.55;;;18.30;89.10;;;;;;5021810;28;20029;-59
2021/08/04 02:05:55;;;;;;;11.80;3.28;;;18.30;89.20;;;;;;5020599;28;20033;-59
2021/08/04 02:08:56;;;;;;;10.52;3.83;;;18.30;89.20;;;;;;5005515;28;20441;-60
2021/08/04 02:11:24;;;;;;;15.38;4.35;;;18.30;89.30;;;;;;5000092;28;20033;-59
2021/08/04 02:14:06;;;;;;;6.20;2.90;;;18.30;89.20;;;;;;5014105;28;20037;-59
2021/08/04 02:16:37;;;;;;;17.08;3.53;;;18.30;89.30;;;;;;5020059;28;20041;-59
2021/08/04 02:19:35;;;;;;;9.63;3.55;;;18.30;89.30;;;;;;5021284;28;20102;-59
2021/08/04 02:22:07;;;;;;;16.05;4.00;;;18.30;89.30;;;;;;5005805;28;20041;-59
2021/08/04 02:24:35;;;;;;;14.82;4.30;;;18.30;89.40;;;;;;5005713;28;20082;-59
2021/08/04 02:27:01;;;;;;;13.52;4.10;;;18.30;89.40;;;;;;5002804;28;20029;-59
2021/08/04 02:29:27;;;;;;;10.10;3.95;;;18.30;89.50;;;;;;5019438;28;20021;-59
2021/08/04 02:31:53;;;;;;;11.68;3.78;;;18.20;89.50;;;;;;5019204;28;20040;-59
2021/08/04 02:34:19;;;;;;;12.70;4.00;;;18.20;89.40;;;;;;5021813;28;20041;-59
2021/08/04 02:36:44;;;;;;;8.90;3.78;;;18.20;89.40;;;;;;5022764;28;20083;-58
2021/08/04 02:39:10;;;;;;;6.38;3.60;;;18.20;89.50;;;;;;5022835;28;20030;-58
2021/08/04 02:41:35;;;;;;;12.38;3.50;;;18.20;89.50;;;;;;5020780;28;20071;-59
2021/08/04 02:44:01;;;;;;;10.10;3.58;;;18.20;89.40;;;;;;5003739;28;20029;-59
2021/08/04 02:46:29;;;;;;;6.90;3.22;;;18.20;89.40;;;;;;5021166;28;20144;-58
2021/08/04 02:48:55;;;;;;;8.48;3.50;;;18.20;89.40;;;;;;5023259;28;20021;-59
2021/08/04 02:51:22;;;;;;;5.72;3.67;;;18.20;89.40;;;;;;5020523;28;20026;-59
2021/08/04 02:53:53;;;;;;;7.05;3.15;;;18.20;89.40;;;;;;5004748;28;20056;-59
2021/08/04 02:56:19;;;;;;;6.35;3.13;;;18.20;89.40;;;;;;5019436;28;20027;-59
2021/08/04 02:58:44;;;;;;;8.57;3.38;;;18.20;89.30;;;;;;5021420;28;20053;-59
2021/08/04 03:01:10;;;;;;;5.80;3.28;;;18.20;89.40;;;;;;5019996;28;20036;-59
2021/08/04 03:03:36;;;;;;;5.68;2.88;;;18.10;89.40;;;;;;5004316;28;20029;-59
2021/08/04 03:06:02;;;;;;;5.28;3.30;;;18.10;89.40;;;;;;5022421;28;20034;-59
2021/08/04 03:08:27;;;;;;;6.65;3.33;;;18.10;89.40;;;;;;5022471;28;20104;-59
2021/08/04 03:10:53;;;;;;;4.82;3.00;;;18.10;89.40;;;;;;5021153;28;20684;-59
2021/08/04 03:13:18;;;;;;;6.22;3.03;;;18.10;89.40;;;;;;5021371;28;20465;-59
2021/08/04 03:15:44;;;;;;;10.18;3.08;;;18.10;90.00;;;;;;5022810;28;20025;-59
2021/08/04 03:18:09;;;;;;;7.07;2.92;;;18.10;89.50;;;;;;5022083;28;20068;-59
2021/08/04 03:20:35;;;;;;;4.72;2.97;;;18.10;89.50;;;;;;5022057;28;20116;-59
2021/08/04 03:23:00;;;;;;;7.43;2.80;;;18.10;89.50;;;;;;5020811;28;20053;-59
2021/08/04 03:25:26;;;;;;;6.07;2.78;;;18.10;89.60;;;;;;5020154;28;20049;-59
2021/08/04 03:27:51;;;;;;;3.20;2.70;;;18.00;89.50;;;;;;5023300;28;20343;-59
2021/08/04 03:30:17;;;;;;;3.10;2.30;;;18.00;89.60;;;;;;5022211;28;20121;-59
2021/08/04 03:32:42;;;;;;;6.60;2.60;;;18.00;89.60;;;;;;5021852;28;20120;-59
2021/08/04 03:35:08;;;;;;;5.63;2.63;;;18.00;89.70;;;;;;5021179;28;20461;-59
2021/08/04 03:37:34;;;;;;;4.75;2.83;;;18.00;89.70;;;;;;5033503;28;20478;-59
2021/08/04 03:40:00;;;;;;;3.95;2.40;;;18.00;89.80;;;;;;5020987;28;20068;-59
2021/08/04 03:42:25;;;;;;;2.80;2.25;;;18.00;89.70;;;;;;5019799;28;20069;-59
2021/08/04 03:44:51;;;;;;;4.55;2.55;;;18.00;89.60;;;;;;5022705;28;20053;-59
2021/08/04 03:47:16;;;;;;;3.60;2.40;;;18.00;89.70;;;;;;5003668;28;20047;-59
2021/08/04 03:49:42;;;;;;;5.97;2.53;;;18.00;89.70;;;;;;5022021;28;20155;-59
2021/08/04 03:52:07;;;;;;;5.30;3.00;;;18.00;89.70;;;;;;5019525;28;20029;-59
2021/08/04 03:54:33;;;;;;;2.67;2.08;;;18.00;89.80;;;;;;5022808;28;20492;-59
2021/08/04 03:56:58;;;;;;;6.40;2.08;;;18.00;89.80;;;;;;5021012;28;20111;-59
2021/08/04 03:59:24;;;;;;;3.88;2.40;;;17.90;89.80;;;;;;5020531;28;20605;-59
2021/08/04 04:01:49;;;;;;;3.42;2.17;;;17.90;89.90;;;;;;5019747;28;20068;-59
2021/08/04 04:04:15;;;;;;;6.68;2.45;;;17.90;89.90;;;;;;5020164;28;20084;-59
2021/08/04 04:06:40;;;;;;;4.53;2.20;;;17.90;90.00;;;;;;5025827;28;20065;-59
2021/08/04 04:09:06;;;;;;;3.92;2.60;;;17.90;90.10;;;;;;5027137;28;20042;-59
2021/08/04 04:11:31;;;;;;;5.53;2.13;;;17.90;90.10;;;;;;5023277;28;20056;-59
2021/08/04 04:13:57;;;;;;;4.93;2.30;;;17.80;90.10;;;;;;5023491;28;20018;-59
2021/08/04 04:16:22;;;;;;;5.35;2.30;;;17.90;90.10;;;;;;5022187;28;20484;-59
2021/08/04 04:18:49;;;;;;;3.72;2.08;;;17.80;90.10;;;;;;5027350;28;20096;-59
2021/08/04 04:21:14;;;;;;;3.75;2.40;;;17.80;90.10;;;;;;5024511;28;20030;-59
2021/08/04 04:23:40;;;;;;;2.58;2.15;;;17.80;90.10;;;;;;5007913;28;20068;-59
2021/08/04 04:26:05;;;;;;;3.13;2.40;;;17.80;90.10;;;;;;5022713;28;20208;-59
2021/08/04 04:28:31;;;;;;;4.43;2.20;;;17.80;90.10;;;;;;5025283;28;20037;-59
2021/08/04 04:30:56;;;;;;;2.75;2.20;;;17.80;90.10;;;;;;5025263;28;20065;-59
2021/08/04 04:33:22;;;;;;;3.42;2.28;;;17.80;90.10;;;;;;5023075;28;20057;-59
2021/08/04 04:35:47;;;;;;;3.63;2.03;;;17.80;90.10;;;;;;5024143;28;20045;-59
2021/08/04 04:38:14;;;;;;;3.88;2.00;;;17.80;90.10;;;;;;5025205;28;20044;-59
2021/08/04 04:40:39;;;;;;;3.58;1.92;;;17.80;90.10;;;;;;5023126;28;20060;-59
2021/08/04 04:43:05;;;;;;;4.68;2.22;;;17.80;90.10;;;;;;5024551;28;20034;-59
2021/08/04 04:45:30;;;;;;;2.75;2.08;;;17.80;90.10;;;;;;5022452;28;20541;-59
2021/08/04 04:47:56;;;;;;;2.50;1.90;;;17.70;90.10;;;;;;5026268;28;20511;-59
2021/08/04 04:50:21;;;;;;;5.38;1.90;;;17.80;90.10;;;;;;5025510;28;20057;-59
2021/08/04 04:52:47;;;;;;;2.60;2.05;;;17.80;90.20;;;;;;5025388;28;20056;-59
2021/08/04 04:55:12;;;;;;;3.75;2.20;;;17.80;90.20;;;;;;5023670;28;20323;-59
2021/08/04 04:57:38;;;;;;;4.78;2.15;;;17.70;90.10;;;;;;5007124;28;20033;-59
2021/08/04 05:00:04;;;;;;;2.67;2.10;;;17.70;90.20;;;;;;5024076;28;20053;-59
2021/08/04 05:02:29;;;;;;;2.78;1.70;;;17.70;90.20;;;;;;5022462;28;20037;-59
2021/08/04 05:04:57;;;;;;;6.32;1.90;;;17.70;90.20;;;;;;5018444;28;20037;-59
2021/08/04 05:07:23;;;;;;;2.83;1.92;;;17.70;90.20;;;;;;5022516;28;20048;-59
2021/08/04 05:09:48;;;;;;;3.15;2.00;;;17.70;90.30;;;;;;5023885;28;20049;-59
2021/08/04 05:12:14;;;;;;;3.33;1.95;;;17.70;90.30;;;;;;5015130;28;20364;-59
2021/08/04 05:14:40;;;;;;;2.08;1.60;;;17.70;90.30;;;;;;5005124;28;20060;-59
2021/08/04 05:17:07;;;;;;;2.75;2.05;;;17.70;90.30;;;;;;5021899;28;20031;-59
2021/08/04 05:19:32;;;;;;;2.42;2.20;;;17.70;90.30;;;;;;5020940;28;20030;-59
2021/08/04 05:21:58;;;;;;;3.22;2.05;;;17.70;90.30;;;;;;5020799;28;20576;-59
2021/08/04 05:24:23;;;;;;;1.80;1.70;;;17.70;90.30;;;;;;5022236;28;20088;-59
2021/08/04 05:26:49;;;;;;;3.63;2.03;;;17.70;90.30;;;;;;5019657;28;20128;-59
2021/08/04 05:29:14;;;;;;;2.50;2.03;;;17.70;90.30;;;;;;5024261;28;20704;-59
2021/08/04 05:31:40;;;;;;;3.28;2.20;;;17.70;90.30;;;;;;5023815;28;20037;-59
2021/08/04 05:34:05;;;;;;;2.67;2.00;;;17.70;90.30;;;;;;5023171;28;20116;-59
2021/08/04 05:36:31;;;;;;;6.88;2.10;;;17.70;90.20;;;;;;5024649;28;20029;-59
2021/08/04 05:38:58;;;;;;;2.53;2.00;;;17.70;90.20;;;;;;5018576;28;20026;-59
2021/08/04 05:41:23;;;;;;;2.05;1.80;;;17.70;90.20;;;;;;5024809;28;20802;-59
2021/08/04 05:43:49;;;;;;;4.72;1.80;;;17.70;90.20;;;;;;5022129;28;20172;-59
2021/08/04 05:46:14;;;;;;;2.47;1.90;;;17.70;90.20;;;;;;4998979;28;20558;-59
2021/08/04 05:48:40;;;;;;;3.67;1.90;;;17.70;90.20;;;;;;5022125;28;20080;-59
2021/08/04 05:51:05;;;;;;;2.45;2.00;;;17.70;90.20;;;;;;5024809;28;20091;-59
2021/08/04 05:53:31;;;;;;;3.03;1.98;;;17.80;90.20;;;;;;5023029;28;20049;-59
2021/08/04 05:55:56;;;;;;;2.33;1.92;;;17.70;90.20;;;;;;5023683;28;20074;-59
2021/08/04 05:58:22;;;;;;;4.13;2.03;;;17.50;90.10;;;;;;5004303;28;20053;-59
2021/08/04 06:00:47;;;;;;;2.35;2.00;;;17.70;90.30;;;;;;5023092;28;20470;-59
2021/08/04 06:03:13;;;;;;;3.92;1.85;;;17.80;90.30;;;;;;5022173;28;20079;-59
2021/08/04 06:05:38;;;;;;;4.13;2.22;;;17.80;90.30;;;;;;5018349;28;20025;-59
2021/08/04 06:08:05;;;;;;;2.85;2.13;;;17.80;90.40;;;;;;5023941;28;20140;-59
2021/08/04 06:10:31;;;;;;;4.35;2.00;;;17.80;90.40;;;;;;5022973;28;20040;-60
2021/08/04 06:12:56;;;;;;;5.57;2.10;;;17.80;90.40;;;;;;5019739;28;20041;-60
2021/08/04 06:15:22;;;;;;;6.72;2.15;;;17.80;90.50;;;;;;5023141;28;20076;-59
2021/08/04 06:17:47;;;;;;;3.47;2.42;;;17.80;90.50;;;;;;5024204;28;20113;-59
2021/08/04 06:20:13;;;;;;;3.13;2.10;;;17.80;90.50;;;;;;5023548;28;20057;-59
2021/08/04 06:22:38;;;;;;;5.88;2.50;;;17.90;90.60;;;;;;5022766;28;20049;-59
2021/08/04 06:25:04;;;;;;;8.38;2.40;;;17.90;90.70;;;;;;5003913;28;20025;-59
2021/08/04 06:27:30;;;;;;;7.72;2.60;;;17.90;90.80;;;;;;5021349;28;20029;-60
2021/08/04 06:29:55;;;;;;;4.97;2.63;;;17.90;90.90;;;;;;5023349;28;20017;-59
2021/08/04 06:32:21;;;;;;;34.83;4.07;;;17.90;90.90;;;;;;5021772;28;20022;-59
2021/08/04 06:34:46;;;;;;;34.20;4.40;;;17.90;90.80;;;;;;5020222;28;20129;-59
2021/08/04 06:37:12;;;;;;;44.03;4.88;;;17.90;90.70;;;;;;5019573;28;20414;-59
2021/08/04 06:39:37;;;;;;;24.98;5.15;;;17.90;90.60;;;;;;5020261;28;20037;-59
2021/08/04 06:42:04;;;;;;;42.70;4.75;;;18.00;90.60;;;;;;5022634;28;20472;-59
2021/08/04 06:44:29;;;;;;;27.10;3.80;;;18.00;90.70;;;;;;5020514;28;20038;-59
2021/08/04 06:46:58;;;;;;;25.65;3.50;;;18.00;90.70;;;;;;5020370;28;20075;-59
2021/08/04 06:49:24;;;;;;;13.95;3.35;;;18.10;90.70;;;;;;5005092;28;20147;-60
2021/08/04 06:51:50;;;;;;;21.85;4.07;;;18.10;90.70;;;;;;5018833;28;20175;-59
2021/08/04 06:54:15;;;;;;;27.27;4.63;;;18.20;90.70;;;;;;5020906;28;20142;-59
2021/08/04 06:56:41;;;;;;;42.58;5.22;;;18.10;90.70;;;;;;5016357;28;20626;-59
2021/08/04 06:59:06;;;;;;;59.75;6.28;;;18.10;90.70;;;;;;5020696;28;20037;-59
2021/08/04 07:01:32;;;;;;;54.20;7.22;;;18.10;90.60;;;;;;5003527;28;20029;-59
2021/08/04 07:03:57;;;;;;;33.88;4.63;;;18.10;90.70;;;;;;5020335;28;20045;-59
2021/08/04 07:06:23;;;;;;;21.73;3.53;;;18.10;90.80;;;;;;5019748;28;20048;-59
2021/08/04 07:08:49;;;;;;;24.02;4.07;;;18.10;91.00;;;;;;5016081;28;20113;-59
2021/08/04 07:11:14;;;;;;;17.00;3.40;;;18.10;91.30;;;;;;5018595;28;20485;-60
2021/08/04 07:13:40;;;;;;;8.60;2.40;;;18.10;91.30;;;;;;5021686;28;20037;-59
2021/08/04 07:16:06;;;;;;;9.38;2.53;;;18.10;91.50;;;;;;5018460;28;20080;-59
2021/08/04 07:18:31;;;;;;;8.40;2.40;;;18.10;91.70;;;;;;5019666;28;20021;-59
2021/08/04 07:20:57;;;;;;;12.98;2.60;;;18.10;91.80;;;;;;5019973;28;20498;-59
2021/08/04 07:23:23;;;;;;;13.40;2.58;;;18.00;91.90;;;;;;5019773;28;20045;-59
2021/08/04 07:25:48;;;;;;;15.50;2.63;;;18.00;91.80;;;;;;5017432;28;20357;-59
2021/08/04 07:28:14;;;;;;;13.18;2.63;;;18.00;91.90;;;;;;5001415;28;20026;-59
2021/08/04 07:30:39;;;;;;;11.85;2.60;;;18.00;91.90;;;;;;5002343;28;20046;-59
2021/08/04 07:33:05;;;;;;;5.22;2.08;;;18.00;92.10;;;;;;5015209;28;20041;-59
2021/08/04 07:35:31;;;;;;;11.27;2.50;;;18.00;92.30;;;;;;5016198;28;20041;-58
2021/08/04 07:37:56;;;;;;;13.60;3.17;;;18.00;92.30;;;;;;5018141;28;20501;-59
2021/08/04 07:40:22;;;;;;;9.43;3.00;;;18.00;92.30;;;;;;5025235;28;20038;-59
2021/08/04 07:42:48;;;;;;;8.10;2.58;;;18.00;92.40;;;;;;5020877;28;20045;-59
2021/08/04 07:45:14;;;;;;;22.88;3.58;;;18.00;92.50;;;;;;5022476;28;20044;-59
2021/08/04 07:47:39;;;;;;;22.23;3.47;;;18.00;92.30;;;;;;5006504;28;20029;-59
2021/08/04 07:50:05;;;;;;;16.15;2.72;;;18.00;92.20;;;;;;5023456;28;20393;-60
2021/08/04 07:52:31;;;;;;;15.32;2.85;;;18.10;92.20;;;;;;5022519;28;20477;-60
2021/08/04 07:54:56;;;;;;;16.67;2.72;;;18.10;92.00;;;;;;5022763;28;20052;-59
2021/08/04 07:57:22;;;;;;;20.45;3.22;;;18.10;92.00;;;;;;5020694;28;20131;-59
2021/08/04 07:59:47;;;;;;;61.80;6.18;;;18.10;92.00;;;;;;5022228;28;21289;-59
2021/08/04 08:02:13;;;;;;;78.63;6.93;;;18.10;92.00;;;;;;5022643;28;20376;-59
2021/08/04 08:04:38;;;;;;;16.05;2.88;;;18.10;92.00;;;;;;5023540;28;20043;-59
2021/08/04 08:07:04;;;;;;;11.93;2.20;;;18.10;92.00;;;;;;5022815;28;20515;-59
2021/08/04 08:09:30;;;;;;;10.65;2.35;;;18.10;91.90;;;;;;5020435;28;20116;-62
2021/08/04 08:11:57;;;;;;;4.75;1.80;;;18.10;92.00;;;;;;5022391;28;20021;-59
2021/08/04 08:14:22;;;;;;;68.05;5.82;;;18.10;91.80;;;;;;5022902;28;20421;-59
2021/08/04 08:16:48;;;;;;;34.35;5.18;;;18.10;91.90;;;;;;5022488;28;20025;-59
2021/08/04 08:19:13;;;;;;;16.75;2.47;;;18.10;91.80;;;;;;5025831;28;20021;-59
2021/08/04 08:21:39;;;;;;;9.15;2.30;;;18.10;91.80;;;;;;5020786;28;20786;-59
2021/08/04 08:24:05;;;;;;;17.10;2.90;;;18.20;91.70;;;;;;5018606;28;20029;-59
2021/08/04 08:26:31;;;;;;;16.52;2.63;;;18.20;91.70;;;;;;5022555;28;20168;-59
2021/08/04 08:28:56;;;;;;;23.27;3.13;;;18.20;91.80;;;;;;5024390;28;20033;-59
2021/08/04 08:31:22;;;;;;;9.90;2.40;;;18.20;91.70;;;;;;5022523;28;20477;-59
2021/08/04 08:33:47;;;;;;;19.27;4.35;;;18.20;91.70;;;;;;5022276;28;20029;-59
2021/08/04 08:36:14;;;;;;;18.98;2.70;;;18.20;91.60;;;;;;5022015;28;20633;-59
2021/08/04 08:38:39;;;;;;;18.83;3.28;;;18.20;91.60;;;;;;5022734;28;20029;-59
2021/08/04 08:41:06;;;;;;;14.98;3.70;;;18.20;91.70;;;;;;5023333;28;20617;-59
2021/08/04 08:43:33;;;;;;;25.15;3.40;;;18.20;91.60;;;;;;5021625;28;20038;-59
2021/08/04 08:45:59;;;;;;;14.80;2.97;;;18.30;91.80;;;;;;5003721;28;20356;-62
2021/08/04 08:48:24;;;;;;;20.80;3.33;;;18.30;91.60;;;;;;5018717;28;20072;-59
2021/08/04 08:50:50;;;;;;;46.92;4.55;;;18.30;91.50;;;;;;5017730;28;20068;-59
2021/08/04 08:53:16;;;;;;;25.95;3.75;;;18.40;91.50;;;;;;5020650;28;20582;-60
2021/08/04 08:55:41;;;;;;;21.45;4.43;;;18.40;91.50;;;;;;5023332;28;20187;-59
2021/08/04 08:58:07;;;;;;;24.35;3.55;;;18.40;91.50;;;;;;5024869;28;20163;-59
2021/08/04 09:00:33;;;;;;;19.13;2.92;;;18.40;91.40;;;;;;5021146;28;20028;-59
2021/08/04 09:02:59;;;;;;;16.10;3.55;;;18.40;91.30;;;;;;5021043;28;20045;-60
2021/08/04 09:05:24;;;;;;;8.60;2.92;;;18.40;91.30;;;;;;5023269;28;20660;-59
2021/08/04 09:07:50;;;;;;;17.27;3.42;;;18.50;91.30;;;;;;5020046;28;20080;-59
2021/08/04 09:10:27;;;;;;;14.07;3.00;;;18.50;91.30;;;;;;5018834;28;20037;-59
2021/08/04 09:12:55;;;;;;;15.68;3.13;;;18.30;91.30;;;;;;5021292;28;20037;-59
2021/08/04 09:15:41;;;;;;;19.35;3.10;;;18.50;91.20;;;;;;5020355;28;20167;-59
2021/08/04 09:18:24;;;;;;;22.77;3.10;;;18.50;91.20;;;;;;5022713;28;20025;-59
2021/08/04 09:20:54;;;;;;;22.02;3.75;;;18.50;91.20;;;;;;5016519;28;20088;-59
2021/08/04 09:23:29;;;;;;;27.85;4.25;;;18.50;91.20;;;;;;5021238;28;20046;-59
2021/08/04 09:26:01;;;;;;;15.80;3.40;;;18.50;91.20;;;;;;5020918;28;20438;-59
2021/08/04 09:28:27;;;;;;;19.08;3.05;;;18.60;91.20;;;;;;5022787;28;20507;-59
2021/08/04 09:31:00;;;;;;;11.60;3.50;;;18.60;91.30;;;;;;5022740;28;20063;-59
2021/08/04 09:33:28;;;;;;;9.18;2.80;;;18.60;91.20;;;;;;5022248;28;20484;-59
2021/08/04 09:35:55;;;;;;;25.67;3.25;;;18.60;91.20;;;;;;5022829;28;20044;-59
2021/08/04 09:38:21;;;;;;;20.30;3.08;;;18.60;91.00;;;;;;5020498;28;20034;-59
2021/08/04 09:40:47;;;;;;;20.88;3.10;;;18.60;91.00;;;;;;5022570;28;20052;-59
2021/08/04 09:43:25;;;;;;;21.50;3.95;;;18.60;90.80;;;;;;5020645;28;20064;-59
2021/08/04 09:45:52;;;;;;;22.15;3.33;;;18.60;90.80;;;;;;5020966;28;20040;-59
2021/08/04 09:48:23;;;;;;;21.88;3.72;;;18.70;90.70;;;;;;5022802;28;20017;-59
2021/08/04 09:50:54;;;;;;;26.38;3.83;;;18.70;90.50;;;;;;5006167;28;20037;-59
2021/08/04 09:53:27;;;;;;;23.58;3.45;;;18.70;90.50;;;;;;5018700;28;20122;-59
2021/08/04 09:56:14;;;;;;;24.23;3.60;;;18.70;90.40;;;;;;5019401;28;20029;-59
2021/08/04 09:58:48;;;;;;;21.42;3.97;;;18.70;90.50;;;;;;5023575;28;20528;-59
2021/08/04 10:01:19;;;;;;;34.22;4.20;;;18.80;90.50;;;;;;5022419;28;20084;-59
2021/08/04 10:04:07;;;;;;;44.45;4.78;;;18.80;90.50;;;;;;5020588;28;20121;-60
2021/08/04 10:06:34;;;;;;;39.50;5.38;;;18.80;90.50;;;;;;5003257;28;20123;-60
2021/08/04 10:09:03;;;;;;;33.50;5.65;;;18.90;90.70;;;;;;5018380;28;20045;-59
2021/08/04 10:11:28;;;;;;;37.33;5.10;;;18.90;90.60;;;;;;5020266;28;20132;-59
2021/08/04 10:13:55;;;;;;;34.75;6.35;;;18.90;90.60;;;;;;5019263;28;20171;-60
2021/08/04 10:16:21;;;;;;;40.10;5.68;;;18.90;90.40;;;;;;5021761;28;20527;-60
2021/08/04 10:18:47;;;;;;;45.38;5.53;;;19.00;90.60;;;;;;4999727;28;20059;-60
2021/08/04 10:21:12;;;;;;;41.35;5.43;;;19.10;90.70;;;;;;5020742;28;20462;-61
2021/08/04 10:23:39;;;;;;;44.47;6.30;;;19.10;90.70;;;;;;5003061;28;20132;-60
2021/08/04 10:26:06;;;;;;;70.38;8.63;;;19.10;90.60;;;;;;5004210;28;20037;-60
2021/08/04 10:28:31;;;;;;;58.90;8.35;;;19.20;90.70;;;;;;4998416;28;20030;-60
2021/08/04 10:30:58;;;;;;;49.92;7.97;;;19.20;90.80;;;;;;5021424;28;20040;-60
2021/08/04 10:33:23;;;;;;;57.33;8.23;;;19.20;90.70;;;;;;5015211;28;20091;-60
2021/08/04 10:35:54;;;;;;;44.38;7.55;;;19.20;90.60;;;;;;5001284;28;20489;-60
2021/08/04 10:38:20;;;;;;;63.78;7.43;;;19.30;90.60;;;;;;5003627;28;20029;-60
2021/08/04 10:41:07;;;;;;;63.22;8.80;;;19.30;90.60;;;;;;5003258;28;20079;-60
2021/08/04 10:43:37;;;;;;;73.28;9.07;;;19.30;90.60;;;;;;5005346;28;20473;-60
2021/08/04 10:46:32;;;;;;;53.67;7.90;;;19.40;90.60;;;;;;5002189;28;20163;-61
2021/08/04 10:49:08;;;;;;;62.22;6.95;;;19.40;90.70;;;;;;5017921;28;20033;-59
2021/08/04 10:51:41;;;;;;;41.95;6.82;;;19.40;90.70;;;;;;5019472;28;20497;-59
2021/08/04 10:54:14;;;;;;;61.90;7.93;;;19.40;90.80;;;;;;5021173;28;20044;-59
2021/08/04 10:56:43;;;;;;;64.50;7.63;;;19.50;90.90;;;;;;5004828;28;20033;-59
2021/08/04 10:59:09;;;;;;;58.92;7.15;;;19.50;91.10;;;;;;5021206;28;20072;-59
2021/08/04 11:01:35;;;;;;;52.40;8.23;;;19.50;90.90;;;;;;5020282;28;20103;-60
2021/08/04 11:04:00;;;;;;;61.25;6.78;;;19.50;91.10;;;;;;5015433;28;20048;-59
2021/08/04 11:06:26;;;;;;;45.33;6.78;;;19.60;91.20;;;;;;5021858;28;20104;-62
2021/08/04 11:09:15;;;;;;;35.63;6.38;;;19.60;91.20;;;;;;5018620;28;20068;-59
2021/08/04 11:11:52;;;;;;;54.53;6.85;;;19.60;91.30;;;;;;4985184;28;20152;-59
2021/08/04 11:14:55;;;;;;;47.42;6.30;;;19.70;91.30;;;;;;5019313;28;20387;-59
2021/08/04 11:17:20;;;;;;;63.78;7.70;;;19.60;91.30;;;;;;5020357;28;20737;-59
2021/08/04 11:20:05;;;;;;;48.78;6.95;;;19.70;91.20;;;;;;5021227;28;20026;-59
2021/08/04 11:22:41;;;;;;;39.47;5.47;;;19.70;91.20;;;;;;5019490;28;20064;-59
2021/08/04 11:25:10;;;;;;;61.58;7.35;;;19.70;91.30;;;;;;5017207;28;20053;-59
2021/08/04 11:27:56;;;;;;;45.92;6.90;;;19.70;91.10;;;;;;5021049;28;20041;-60
2021/08/04 11:30:29;;;;;;;39.80;5.97;;;19.80;91.00;;;;;;5012088;28;20029;-59
2021/08/04 11:33:22;;;;;;;48.13;6.00;;;19.80;90.90;;;;;;5018664;28;20036;-59
2021/08/04 11:36:07;;;;;;;48.85;6.80;;;19.80;90.90;;;;;;5016399;28;20037;-59
2021/08/04 11:38:50;;;;;;;41.03;5.78;;;19.90;90.80;;;;;;5016995;28;20112;-59
2021/08/04 11:41:38;;;;;;;34.15;5.28;;;20.00;90.70;;;;;;5019555;28;20076;-59
2021/08/04 11:44:19;;;;;;;45.97;6.30;;;20.00;90.60;;;;;;5015282;28;20279;-60
2021/08/04 11:46:48;;;;;;;47.78;6.53;;;20.00;90.50;;;;;;5020353;28;20038;-59
2021/08/04 11:49:34;;;;;;;40.85;6.43;;;20.00;90.40;;;;;;5015253;28;20495;-59
2021/08/04 11:52:04;;;;;;;40.53;5.78;;;20.10;90.30;;;;;;5012950;28;20029;-59
2021/08/04 11:54:37;;;;;;;37.00;5.45;;;20.10;90.20;;;;;;5011144;28;20029;-59
2021/08/04 11:57:05;;;;;;;43.05;6.82;;;20.10;90.10;;;;;;5013668;28;20037;-61
2021/08/04 11:59:32;;;;;;;49.20;5.32;;;20.20;89.80;;;;;;5014759;28;20590;-59
2021/08/04 12:01:59;;;;;;;33.35;4.95;;;20.20;89.40;;;;;;5013334;28;20144;-60
2021/08/04 12:04:25;;;;;;;44.58;6.47;;;20.20;89.50;;;;;;5014195;28;20116;-59
2021/08/04 12:07:05;;;;;;;48.88;5.88;;;20.20;89.00;;;;;;4998092;28;20042;-59
2021/08/04 12:09:34;;;;;;;29.50;4.53;;;20.20;88.70;;;;;;5000756;28;20084;-59
2021/08/04 12:12:00;;;;;;;47.80;6.60;;;20.30;88.80;;;;;;5016339;28;20120;-61
2021/08/04 12:14:26;;;;;;;43.53;5.93;;;20.20;88.50;;;;;;4999133;28;20120;-59
2021/08/04 12:16:54;;;;;;;50.20;6.30;;;20.20;88.40;;;;;;5015046;28;20171;-59
2021/08/04 12:19:37;;;;;;;40.53;6.35;;;20.30;88.40;;;;;;5015907;28;20045;-59
2021/08/04 12:22:08;;;;;;;50.63;6.07;;;20.30;88.50;;;;;;5003686;28;20780;-59
2021/08/04 12:24:41;;;;;;;42.70;5.82;;;20.30;88.60;;;;;;5001904;28;20029;-59
2021/08/04 12:27:07;;;;;;;43.08;6.90;;;20.30;88.50;;;;;;5006989;28;20053;-59
2021/08/04 12:29:32;;;;;;;53.13;6.97;;;20.30;88.50;;;;;;5019123;28;20033;-59
2021/08/04 12:32:10;;;;;;;56.90;5.90;;;20.30;88.50;;;;;;5018374;28;20104;-59
2021/08/04 12:34:58;;;;;;;39.47;6.30;;;20.30;88.40;;;;;;5014666;28;20045;-59
2021/08/04 12:37:24;;;;;;;53.15;6.63;;;20.40;88.50;;;;;;5013790;28;20109;-59
2021/08/04 12:39:49;;;;;;;52.55;6.57;;;20.30;88.40;;;;;;4986849;28;20484;-59
2021/08/04 12:42:17;;;;;;;44.45;5.72;;;20.30;88.20;;;;;;4988495;28;20103;-59
2021/08/04 12:44:43;;;;;;;49.15;6.63;;;20.40;88.30;;;;;;5018195;28;20088;-59